Time;durP1;ratioP1;P1;durP2;ratioP2;P2;SDS_P1;SDS_P2;PMS_P1;PMS_P2;Temp;Humidity;BMP_temperature;BMP_pressure;BME280_temperature;BME280_humidity;BME280_pressure;Samples;Min_cycle;Max_cycle;Signal;HPM_P1;HPM_P2
2022/10/07 00:00:45;;;;;;;4.63;3.72;;;12.10;99.90;;;;;;5217214;28;20029;-64
2022/10/07 00:03:16;;;;;;;5.13;3.90;;;12.00;99.90;;;;;;5204601;28;20037;-63
2022/10/07 00:06:04;;;;;;;6.00;4.28;;;12.00;99.90;;;;;;5200797;28;20041;-63
2022/10/07 00:08:36;;;;;;;;;;;12.00;99.90;;;;;;5195456;28;20214;-64
2022/10/07 00:11:12;;;;;;;5.72;4.25;;;12.00;99.90;;;;;;5194037;28;20514;-65
2022/10/07 00:13:48;;;;;;;5.22;4.10;;;12.00;99.90;;;;;;5197276;28;20266;-64
2022/10/07 00:16:24;;;;;;;6.93;4.75;;;12.00;99.90;;;;;;5179947;28;20029;-63
2022/10/07 00:18:58;;;;;;;4.32;3.85;;;12.00;99.90;;;;;;5163787;28;20575;-64
2022/10/07 00:21:34;;;;;;;6.82;4.18;;;12.00;99.90;;;;;;5198009;28;20316;-64
2022/10/07 00:24:10;;;;;;;5.15;3.97;;;11.90;99.90;;;;;;5192110;28;20032;-64
2022/10/07 00:26:42;;;;;;;5.65;4.13;;;11.90;99.90;;;;;;5179855;28;20028;-63
2022/10/07 00:29:16;;;;;;;5.60;3.97;;;11.80;99.90;;;;;;5197658;28;20352;-65
2022/10/07 00:31:50;;;;;;;4.68;3.90;;;11.70;99.90;;;;;;5197490;28;20356;-62
2022/10/07 00:34:26;;;;;;;5.70;4.15;;;11.70;99.90;;;;;;5179602;28;20025;-63
2022/10/07 00:37:02;;;;;;;7.80;3.90;;;11.60;99.90;;;;;;5213249;28;20116;-64
2022/10/07 00:39:36;;;;;;;4.32;3.70;;;11.50;99.90;;;;;;5210638;28;20302;-65
2022/10/07 00:42:12;;;;;;;7.30;4.27;;;11.50;99.90;;;;;;5179365;28;20595;-64
2022/10/07 00:44:48;;;;;;;7.88;4.43;;;11.50;99.90;;;;;;5197269;28;20239;-65
2022/10/07 00:47:36;;;;;;;5.20;4.38;;;11.40;99.90;;;;;;5216686;28;20063;-63
2022/10/07 00:50:12;;;;;;;7.07;3.65;;;11.40;99.90;;;;;;5232401;28;20047;-63
2022/10/07 00:53:01;;;;;;;6.22;4.50;;;11.40;99.90;;;;;;5218074;28;20021;-64
2022/10/07 00:55:35;;;;;;;5.70;4.15;;;11.40;99.90;;;;;;5183490;28;20031;-63
2022/10/07 00:58:08;;;;;;;8.38;4.18;;;11.30;99.90;;;;;;5199610;28;20033;-62
2022/10/07 01:00:39;;;;;;;7.45;4.20;;;11.30;99.90;;;;;;5195006;28;20367;-65
2022/10/07 01:03:11;;;;;;;4.53;3.70;;;11.30;99.90;;;;;;5208458;23;20110;-77
2022/10/07 01:05:45;;;;;;;7.10;4.28;;;11.40;99.90;;;;;;5187043;28;20558;-79
2022/10/07 01:08:18;;;;;;;7.20;4.43;;;11.40;99.90;;;;;;5195118;28;20031;-79
2022/10/07 01:11:45;;;;;;;6.95;4.20;;;11.40;99.90;;;;;;5197742;28;20036;-78
2022/10/07 01:14:56;;;;;;;8.68;4.43;;;11.40;99.90;;;;;;5140004;28;20152;-77
2022/10/07 01:17:34;;;;;;;5.90;4.18;;;11.50;99.90;;;;;;5130188;28;20490;-78
2022/10/07 01:20:43;;;;;;;10.02;5.15;;;11.50;99.90;;;;;;5115222;29;20043;-78
2022/10/07 01:23:51;;;;;;;5.50;4.40;;;11.60;99.90;;;;;;5111155;28;20036;-81
2022/10/07 01:26:44;;;;;;;6.88;4.18;;;11.50;99.90;;;;;;5114247;29;20042;-78
2022/10/07 01:29:38;;;;;;;6.63;4.25;;;11.50;99.90;;;;;;5101733;29;20050;-78
2022/10/07 01:32:21;;;;;;;6.47;4.55;;;11.40;99.90;;;;;;5127699;28;20546;-79
2022/10/07 01:34:55;;;;;;;6.53;4.20;;;11.30;99.90;;;;;;5114747;29;20051;-78
2022/10/07 01:37:33;;;;;;;7.47;4.47;;;11.30;99.90;;;;;;5113752;28;20043;-77
2022/10/07 01:40:12;;;;;;;4.35;3.95;;;11.10;99.90;;;;;;5113842;28;20312;-77
2022/10/07 01:42:45;;;;;;;8.05;4.60;;;11.10;99.90;;;;;;5114486;29;20037;-78
2022/10/07 01:45:22;;;;;;;6.43;4.15;;;11.00;99.90;;;;;;5114010;29;20027;-79
2022/10/07 01:47:53;;;;;;;10.00;4.57;;;11.00;99.90;;;;;;5088976;28;20022;-78
2022/10/07 01:50:30;;;;;;;6.38;4.47;;;10.90;99.90;;;;;;5131034;28;20058;-78
2022/10/07 01:53:20;;;;;;;6.13;4.25;;;10.80;99.90;;;;;;5145347;28;20041;-77
2022/10/07 01:56:09;;;;;;;6.45;4.75;;;10.80;99.90;;;;;;5177214;28;20024;-79
2022/10/07 01:58:59;;;;;;;7.63;4.85;;;10.90;99.90;;;;;;5177888;28;20044;-78
2022/10/07 02:02:02;;;;;;;6.55;5.28;;;10.80;99.90;;;;;;5198582;28;20037;-78
2022/10/07 02:04:36;;;;;;;8.88;6.05;;;10.90;99.90;;;;;;5192468;28;20049;-78
2022/10/07 02:07:38;;;;;;;11.15;6.03;;;11.00;99.90;;;;;;5191088;28;20051;-78
2022/10/07 02:10:27;;;;;;;9.50;5.40;;;11.00;99.90;;;;;;5197315;28;20025;-79
2022/10/07 02:13:20;;;;;;;7.80;6.05;;;11.20;99.90;;;;;;5199961;28;20028;-80
2022/10/07 02:16:16;;;;;;;13.10;6.35;;;11.20;99.90;;;;;;5200758;28;20043;-79
2022/10/07 02:18:50;;;;;;;8.20;5.78;;;11.20;99.90;;;;;;5201664;28;20025;-78
2022/10/07 02:21:24;;;;;;;;;;;11.20;99.90;;;;;;5185196;28;20044;-78
2022/10/07 02:23:58;;;;;;;12.15;4.82;;;11.20;99.90;;;;;;5184070;28;19909;-77
2022/10/07 02:26:35;;;;;;;8.98;5.53;;;11.10;99.90;;;;;;5200523;28;20025;-78
2022/10/07 02:29:11;;;;;;;8.57;5.07;;;11.00;99.90;;;;;;5201754;28;20044;-79
2022/10/07 02:31:46;;;;;;;5.63;4.53;;;10.90;99.90;;;;;;5203430;28;20026;-82
2022/10/07 02:34:20;;;;;;;6.68;5.07;;;10.90;99.90;;;;;;5204908;28;20261;-80
2022/10/07 02:37:01;;;;;;;5.97;5.35;;;10.90;99.90;;;;;;5213443;28;20489;-79
2022/10/07 02:39:35;;;;;;;8.43;4.43;;;10.80;99.90;;;;;;5197357;28;20047;-78
2022/10/07 02:42:12;;;;;;;6.95;5.20;;;10.70;99.90;;;;;;5199041;28;20027;-78
2022/10/07 02:44:59;;;;;;;11.57;6.05;;;10.70;99.90;;;;;;5197087;28;20025;-79
2022/10/07 02:47:48;;;;;;;12.65;6.22;;;10.70;99.90;;;;;;5197613;28;20025;-79
2022/10/07 02:50:30;;;;;;;9.40;6.50;;;10.70;99.90;;;;;;5189338;28;20033;-80
2022/10/07 02:53:03;;;;;;;43.90;24.88;;;10.70;99.90;;;;;;5200574;28;20208;-78
2022/10/07 02:55:35;;;;;;;39.45;23.80;;;10.60;99.90;;;;;;5205677;28;20219;-79
2022/10/07 02:58:08;;;;;;;20.33;12.65;;;10.60;99.90;;;;;;5179055;28;20697;-78
2022/10/07 03:00:49;;;;;;;65.43;41.43;;;10.60;99.90;;;;;;5196393;28;20033;-78
2022/10/07 03:03:24;;;;;;;28.25;20.10;;;10.70;99.90;;;;;;5194930;28;20045;-78
2022/10/07 03:05:55;;;;;;;13.20;8.98;;;10.60;99.90;;;;;;5175082;28;20045;-78
2022/10/07 03:08:26;;;;;;;14.32;10.48;;;10.60;99.90;;;;;;5193306;28;20453;-78
2022/10/07 03:10:58;;;;;;;19.98;12.60;;;10.50;99.90;;;;;;5194765;28;20314;-78
2022/10/07 03:13:34;;;;;;;18.65;12.05;;;10.50;99.90;;;;;;5196970;28;20021;-78
2022/10/07 03:16:05;;;;;;;19.95;15.02;;;10.50;99.90;;;;;;5178484;28;20035;-78
2022/10/07 03:18:40;;;;;;;17.00;12.35;;;10.40;99.90;;;;;;5197056;28;20033;-80
2022/10/07 03:21:11;;;;;;;;;;;10.30;99.90;;;;;;5195899;28;20037;-77
2022/10/07 03:23:42;;;;;;;16.80;9.65;;;10.40;99.90;;;;;;5194673;28;20264;-78
2022/10/07 03:26:16;;;;;;;14.77;10.43;;;10.40;99.90;;;;;;5195620;28;20022;-77
2022/10/07 03:28:47;;;;;;;19.73;12.10;;;10.40;99.90;;;;;;5195364;28;20393;-77
2022/10/07 03:31:22;;;;;;;18.05;10.95;;;10.30;99.90;;;;;;5197850;28;20026;-79
2022/10/07 03:33:57;;;;;;;15.52;10.50;;;10.10;99.90;;;;;;5196215;28;20021;-79
2022/10/07 03:36:28;;;;;;;16.48;9.80;;;10.10;99.90;;;;;;5198427;28;20563;-78
2022/10/07 03:38:59;;;;;;;17.63;11.18;;;10.00;99.90;;;;;;5199002;28;20032;-80
2022/10/07 03:41:33;;;;;;;14.57;10.18;;;10.10;99.90;;;;;;5199911;28;20037;-78
2022/10/07 03:44:04;;;;;;;16.38;9.88;;;10.10;99.90;;;;;;5198879;28;20030;-80
2022/10/07 03:46:38;;;;;;;14.52;9.27;;;10.10;99.90;;;;;;5195229;28;20029;-77
2022/10/07 03:49:09;;;;;;;13.55;9.60;;;10.10;99.90;;;;;;5197760;28;20033;-80
2022/10/07 03:51:43;;;;;;;16.88;9.70;;;10.10;99.90;;;;;;5160379;28;20046;-77
2022/10/07 03:54:14;;;;;;;12.88;9.60;;;10.20;99.90;;;;;;5189315;28;20037;-79
2022/10/07 03:56:48;;;;;;;14.82;10.30;;;10.10;99.90;;;;;;5201882;28;20040;-77
2022/10/07 03:59:20;;;;;;;20.85;13.93;;;10.10;99.90;;;;;;5202576;28;20021;-78
2022/10/07 04:01:51;;;;;;;21.25;15.35;;;10.10;99.90;;;;;;5199193;28;20033;-77
2022/10/07 04:04:26;;;;;;;63.03;48.72;;;10.20;99.90;;;;;;5185333;28;20037;-79
2022/10/07 04:07:00;;;;;;;21.63;13.10;;;10.20;99.90;;;;;;5209716;28;20132;-80
2022/10/07 04:09:31;;;;;;;18.43;10.93;;;10.30;99.90;;;;;;5185927;28;20034;-79
2022/10/07 04:12:06;;;;;;;15.88;11.75;;;10.20;99.90;;;;;;5184763;28;20037;-79
2022/10/07 04:14:53;;;;;;;18.15;12.35;;;10.20;99.90;;;;;;5203106;28;20024;-78
2022/10/07 04:17:30;;;;;;;24.10;12.18;;;10.30;99.90;;;;;;5219566;28;20410;-78
2022/10/07 04:20:03;;;;;;;16.92;12.18;;;10.40;99.90;;;;;;5191917;28;20045;-78
2022/10/07 04:22:35;;;;;;;17.02;11.20;;;10.30;99.90;;;;;;5182534;28;20021;-79
2022/10/07 04:28:24;;;;;;;19.27;13.13;;;10.30;99.90;;;;;;5179474;28;20042;-79
2022/10/07 04:30:56;;;;;;;18.65;12.85;;;10.30;99.90;;;;;;5196860;28;20033;-80
2022/10/07 04:33:28;;;;;;;17.98;12.13;;;10.30;99.90;;;;;;5180385;28;20040;-78
2022/10/07 04:36:08;;;;;;;19.95;12.38;;;10.30;99.90;;;;;;5191912;28;20517;-77
2022/10/07 04:38:43;;;;;;;18.55;13.15;;;10.30;99.90;;;;;;5199028;28;20028;-78
2022/10/07 04:41:19;;;;;;;18.48;12.75;;;10.30;99.90;;;;;;5197963;28;20491;-78
2022/10/07 04:43:51;;;;;;;41.13;17.45;;;10.30;99.90;;;;;;5196537;28;20025;-78
2022/10/07 04:46:25;;;;;;;28.42;14.82;;;10.30;99.90;;;;;;5198941;28;20040;-77
2022/10/07 04:48:56;;;;;;;24.40;15.85;;;10.30;99.90;;;;;;5198360;28;20021;-77
2022/10/07 04:51:30;;;;;;;22.80;13.70;;;10.30;99.90;;;;;;5197890;28;20240;-79
2022/10/07 04:54:03;;;;;;;22.58;12.90;;;10.10;99.90;;;;;;5198568;28;20541;-78
2022/10/07 04:56:40;;;;;;;20.73;12.27;;;10.10;99.90;;;;;;5192699;28;20021;-77
2022/10/07 04:59:13;;;;;;;18.17;12.60;;;10.00;99.90;;;;;;5194346;28;20021;-77
2022/10/07 05:01:44;;;;;;;25.45;12.35;;;10.00;99.90;;;;;;5192247;28;20550;-78
2022/10/07 05:04:15;;;;;;;19.27;11.23;;;9.80;99.90;;;;;;5188382;28;20596;-78
2022/10/07 05:06:47;;;;;;;21.02;12.07;;;9.80;99.90;;;;;;5199932;28;20457;-78
2022/10/07 05:09:18;;;;;;;19.88;12.93;;;9.80;99.90;;;;;;5192109;28;20030;-78
2022/10/07 05:11:56;;;;;;;19.58;13.25;;;9.80;99.90;;;;;;5191845;28;20040;-78
2022/10/07 05:14:27;;;;;;;23.33;12.48;;;9.70;99.90;;;;;;5174295;28;20297;-78
2022/10/07 05:16:58;;;;;;;19.42;10.70;;;9.70;99.90;;;;;;5193210;28;20051;-78
2022/10/07 05:19:34;;;;;;;17.67;10.55;;;9.70;99.90;;;;;;5198645;28;20029;-78
2022/10/07 05:22:06;;;;;;;19.35;11.38;;;9.70;99.90;;;;;;5179921;28;20042;-78
2022/10/07 05:24:37;;;;;;;13.80;9.15;;;9.70;99.90;;;;;;5199004;28;20036;-77
2022/10/07 05:27:08;;;;;;;17.92;11.00;;;9.70;99.90;;;;;;5182438;28;20028;-79
2022/10/07 05:29:39;;;;;;;17.58;11.18;;;9.80;99.90;;;;;;5196978;28;20025;-78
2022/10/07 05:32:14;;;;;;;17.33;11.02;;;9.90;99.90;;;;;;5174857;28;20295;-79
2022/10/07 05:34:45;;;;;;;15.50;9.95;;;10.00;99.90;;;;;;5199443;28;20033;-77
2022/10/07 05:37:17;;;;;;;17.52;10.80;;;10.00;99.90;;;;;;5197881;28;20033;-78
2022/10/07 05:39:50;;;;;;;19.92;11.40;;;10.10;99.90;;;;;;5201221;28;20041;-78
2022/10/07 05:42:27;;;;;;;16.55;12.23;;;10.20;99.90;;;;;;5202037;28;20048;-78
2022/10/07 05:45:04;;;;;;;17.90;11.80;;;10.30;99.90;;;;;;5184990;28;20108;-78
2022/10/07 05:47:35;;;;;;;16.33;10.55;;;10.30;99.90;;;;;;5196253;28;20027;-79
2022/10/07 05:50:07;;;;;;;17.88;11.55;;;10.40;99.90;;;;;;5192214;28;20051;-79
2022/10/07 05:52:38;;;;;;;17.23;10.68;;;10.50;99.90;;;;;;5193706;28;20032;-78
2022/10/07 05:55:12;;;;;;;17.00;10.52;;;10.50;99.90;;;;;;5180195;28;20033;-78
2022/10/07 05:57:46;;;;;;;14.18;9.63;;;10.70;99.90;;;;;;5197252;28;20044;-78
2022/10/07 06:00:17;;;;;;;17.00;10.65;;;10.90;99.90;;;;;;5196771;28;20234;-79
2022/10/07 06:02:52;;;;;;;19.17;10.63;;;11.10;99.90;;;;;;5195851;28;20243;-78
2022/10/07 06:05:24;;;;;;;15.00;9.52;;;11.20;99.90;;;;;;5206282;28;20058;-78
2022/10/07 06:07:55;;;;;;;15.85;8.55;;;11.40;99.90;;;;;;5194792;28;20021;-77
2022/10/07 06:13:22;;;;;;;10.18;7.75;;;11.60;99.90;;;;;;5194743;28;20603;-78
2022/10/07 06:16:10;;;;;;;10.48;7.45;;;11.80;99.90;;;;;;5181328;28;20025;-77
2022/10/07 06:18:41;;;;;;;13.63;8.45;;;12.00;99.90;;;;;;5194381;28;20052;-79
2022/10/07 06:21:12;;;;;;;13.15;8.88;;;12.20;99.90;;;;;;5171082;28;20044;-77
2022/10/07 06:23:50;;;;;;;12.25;8.10;;;12.30;99.90;;;;;;5196362;28;20041;-77
2022/10/07 06:26:23;;;;;;;10.63;7.50;;;12.40;99.90;;;;;;5196724;28;20056;-78
2022/10/07 06:28:56;;;;;;;12.77;7.32;;;12.60;99.90;;;;;;5197973;28;20027;-77
2022/10/07 06:31:30;;;;;;;9.07;6.28;;;12.80;99.90;;;;;;5179549;28;20037;-77
2022/10/07 06:34:01;;;;;;;8.50;7.68;;;13.10;99.90;;;;;;5196265;28;20039;-76
2022/10/07 06:36:34;;;;;;;7.43;6.53;;;13.30;99.90;;;;;;5187624;28;20041;-77
2022/10/07 06:39:09;;;;;;;9.77;6.90;;;13.40;99.90;;;;;;5190956;28;20319;-77
2022/10/07 06:41:40;;;;;;;16.00;6.57;;;13.60;99.90;;;;;;5198162;28;20342;-78
2022/10/07 06:44:11;;;;;;;13.32;6.93;;;13.70;99.90;;;;;;5190213;28;20215;-79
2022/10/07 06:46:42;;;;;;;10.65;8.15;;;14.00;99.90;;;;;;5218186;28;20050;-78
2022/10/07 06:49:16;;;;;;;13.45;6.68;;;14.20;99.90;;;;;;5199239;28;20275;-77
2022/10/07 06:51:55;;;;;;;11.13;7.32;;;14.50;99.90;;;;;;5195894;28;20041;-77
2022/10/07 06:54:26;;;;;;;10.32;7.97;;;14.50;99.90;;;;;;5197258;28;20041;-77
2022/10/07 06:56:58;;;;;;;14.73;8.50;;;14.60;99.90;;;;;;5196081;28;20048;-77
2022/10/07 06:59:29;;;;;;;11.60;8.18;;;14.90;99.90;;;;;;5198592;28;20033;-79
2022/10/07 07:02:08;;;;;;;13.20;8.95;;;15.10;99.90;;;;;;5197306;28;20227;-78
2022/10/07 07:04:42;;;;;;;11.90;8.80;;;15.10;99.90;;;;;;5193641;28;20044;-79
2022/10/07 07:07:16;;;;;;;13.57;8.95;;;15.30;99.90;;;;;;5199866;28;20037;-78
2022/10/07 07:09:49;;;;;;;12.27;9.00;;;15.60;99.90;;;;;;5198437;28;20047;-78
2022/10/07 07:12:25;;;;;;;18.02;9.07;;;15.80;99.90;;;;;;5199108;28;20035;-79
2022/10/07 07:14:59;;;;;;;12.35;8.13;;;15.80;99.90;;;;;;5196521;28;20223;-79
2022/10/07 07:17:43;;;;;;;13.15;8.75;;;15.90;99.90;;;;;;5181505;28;20258;-77
2022/10/07 07:20:15;;;;;;;10.15;8.38;;;15.90;99.90;;;;;;5199615;28;20044;-76
2022/10/07 07:22:51;;;;;;;12.77;7.88;;;16.00;99.90;;;;;;5218127;28;20221;-77
2022/10/07 07:25:24;;;;;;;12.57;8.43;;;16.30;99.90;;;;;;5201071;28;20030;-77
2022/10/07 07:28:00;;;;;;;12.25;7.75;;;16.60;99.90;;;;;;5195739;28;20369;-77
2022/10/07 07:30:36;;;;;;;10.10;7.82;;;16.80;99.90;;;;;;5187253;28;20484;-78
2022/10/07 07:33:08;;;;;;;11.75;7.28;;;16.80;99.90;;;;;;5197793;28;20484;-77
2022/10/07 07:35:49;;;;;;;12.70;8.07;;;16.90;99.90;;;;;;5210216;28;20029;-77
2022/10/07 07:38:23;;;;;;;11.25;8.15;;;17.00;99.90;;;;;;5179961;28;20200;-78
2022/10/07 07:40:57;;;;;;;11.23;8.00;;;17.00;99.90;;;;;;5197238;28;20043;-77
2022/10/07 07:43:28;;;;;;;11.52;8.18;;;17.00;99.90;;;;;;5159054;28;20042;-77
2022/10/07 07:46:03;;;;;;;10.55;7.78;;;17.20;99.90;;;;;;5177592;28;20179;-77
2022/10/07 07:48:35;;;;;;;12.32;7.68;;;17.00;99.90;;;;;;5187642;28;20257;-77
2022/10/07 07:51:06;;;;;;;9.65;6.43;;;17.30;99.90;;;;;;5180005;28;20033;-76
2022/10/07 07:53:38;;;;;;;8.88;7.10;;;17.60;99.90;;;;;;5193692;28;20035;-78
2022/10/07 07:56:10;;;;;;;10.02;8.10;;;17.70;99.90;;;;;;5196894;28;20285;-78
2022/10/07 07:58:44;;;;;;;8.82;6.82;;;17.60;99.90;;;;;;5193531;28;20643;-77
2022/10/07 08:01:17;;;;;;;8.55;7.00;;;17.30;99.90;;;;;;5198455;28;20048;-78
2022/10/07 08:03:52;;;;;;;10.90;7.47;;;17.40;99.90;;;;;;5198374;28;20033;-78
2022/10/07 08:06:26;;;;;;;7.78;6.97;;;17.60;99.90;;;;;;5187562;28;20050;-77
2022/10/07 08:08:58;;;;;;;;;;;17.50;99.90;;;;;;5197150;28;20227;-77
2022/10/07 08:11:32;;;;;;;11.73;7.78;;;17.70;99.90;;;;;;5179097;28;20104;-79
2022/10/07 08:14:06;;;;;;;11.55;8.80;;;17.50;99.90;;;;;;5175579;28;20330;-78
2022/10/07 08:16:38;;;;;;;14.85;8.77;;;17.10;99.90;;;;;;5197923;28;20031;-77
2022/10/07 08:19:11;;;;;;;12.32;7.43;;;17.10;99.90;;;;;;5199947;28;20033;-77
2022/10/07 08:21:45;;;;;;;16.17;8.93;;;17.10;99.90;;;;;;5196722;28;20037;-78
2022/10/07 08:24:20;;;;;;;13.27;7.78;;;17.30;99.90;;;;;;5200588;28;20037;-77
2022/10/07 08:26:55;;;;;;;12.20;8.23;;;17.70;99.90;;;;;;5199067;28;20242;-77
2022/10/07 08:29:27;;;;;;;14.95;8.40;;;17.60;99.90;;;;;;5197800;28;20361;-77
2022/10/07 08:31:58;;;;;;;13.10;8.73;;;17.50;99.90;;;;;;5199738;28;20041;-77
2022/10/07 08:34:29;;;;;;;11.63;8.40;;;17.50;99.90;;;;;;5203256;28;20025;-77
2022/10/07 08:37:00;;;;;;;11.00;6.82;;;17.40;99.90;;;;;;5221345;28;20031;-77
2022/10/07 08:39:32;;;;;;;10.85;7.38;;;17.70;99.90;;;;;;5222579;28;20025;-78
2022/10/07 08:42:39;;;;;;;11.73;8.10;;;18.00;99.90;;;;;;5221860;28;20047;-79
2022/10/07 08:45:19;;;;;;;12.02;8.30;;;18.10;99.90;;;;;;5200178;28;20311;-78
2022/10/07 08:47:53;;;;;;;11.05;8.32;;;18.30;99.90;;;;;;5199931;28;20031;-78
2022/10/07 08:51:10;;;;;;;11.65;8.07;;;18.40;99.90;;;;;;5198153;28;20029;-78
2022/10/07 08:53:46;;;;;;;11.45;8.00;;;18.20;99.90;;;;;;5176948;28;20029;-78
2022/10/07 08:56:22;;;;;;;12.68;8.60;;;18.50;99.90;;;;;;5176242;28;20026;-78
2022/10/07 08:59:08;;;;;;;14.38;8.38;;;19.00;99.90;;;;;;5176195;28;20043;-77
2022/10/07 09:02:14;;;;;;;11.02;8.82;;;19.30;99.90;;;;;;5159534;28;20034;-78
2022/10/07 09:05:05;;;;;;;15.45;8.65;;;19.40;99.90;;;;;;5145827;28;20050;-77
2022/10/07 09:07:50;;;;;;;12.40;8.93;;;19.30;99.90;;;;;;5167103;28;20030;-78
2022/10/07 09:10:24;;;;;;;14.23;10.00;;;19.10;99.90;;;;;;5176575;28;20441;-78
2022/10/07 09:13:16;;;;;;;16.75;9.45;;;19.20;99.90;;;;;;5175507;28;20246;-78
2022/10/07 09:16:02;;;;;;;15.00;10.00;;;19.30;99.90;;;;;;5176156;28;20044;-78
2022/10/07 09:18:45;;;;;;;13.00;9.52;;;19.80;99.90;;;;;;5155048;28;20547;-78
2022/10/07 09:21:47;;;;;;;13.68;9.52;;;20.10;99.90;;;;;;5172742;28;20191;-78
2022/10/07 09:24:23;;;;;;;17.10;9.27;;;20.30;99.90;;;;;;5142667;28;20042;-78
2022/10/07 09:27:00;;;;;;;16.33;9.30;;;21.00;99.90;;;;;;5164905;28;20029;-80
2022/10/07 09:29:35;;;;;;;12.30;8.68;;;21.40;99.90;;;;;;5177112;28;20643;-78
2022/10/07 09:32:10;;;;;;;12.85;8.98;;;21.20;99.90;;;;;;5199300;28;20031;-78
2022/10/07 09:34:42;;;;;;;12.35;8.70;;;21.30;99.90;;;;;;5193657;28;20035;-79
2022/10/07 09:37:18;;;;;;;11.73;8.45;;;21.70;99.90;;;;;;5200194;28;20257;-77
2022/10/07 09:39:52;;;;;;;10.43;8.18;;;22.20;99.90;;;;;;5198416;28;20341;-78
2022/10/07 09:42:37;;;;;;;11.70;7.68;;;21.50;99.90;;;;;;5196546;28;20037;-78
2022/10/07 09:45:26;;;;;;;7.65;6.35;;;21.80;99.90;;;;;;5198498;28;20025;-79
2022/10/07 09:48:06;;;;;;;7.50;6.28;;;22.70;99.90;;;;;;5196376;28;20025;-77
2022/10/07 09:50:42;;;;;;;9.68;6.10;;;22.80;99.90;;;;;;5192397;28;20021;-77
2022/10/07 09:53:23;;;;;;;8.70;5.70;;;23.40;99.90;;;;;;5198363;28;20029;-77
2022/10/07 09:55:55;;;;;;;8.88;6.35;;;23.20;99.90;;;;;;5198928;28;20021;-78
2022/10/07 09:58:30;;;;;;;7.45;6.65;;;23.20;99.90;;;;;;5197987;28;20368;-77
2022/10/07 10:01:13;;;;;;;6.78;5.65;;;23.50;99.90;;;;;;5197271;28;20044;-77
2022/10/07 10:03:44;;;;;;;12.32;5.72;;;23.50;99.90;;;;;;5206374;28;20043;-76
2022/10/07 10:06:20;;;;;;;10.25;5.43;;;23.80;99.90;;;;;;5187500;28;20267;-79
2022/10/07 10:08:56;;;;;;;12.70;5.65;;;23.60;99.90;;;;;;5179498;28;20030;-78
2022/10/07 10:11:27;;;;;;;10.85;5.43;;;23.30;99.90;;;;;;5179102;28;20037;-79
2022/10/07 10:14:34;;;;;;;8.98;5.50;;;23.70;99.90;;;;;;5178833;28;20029;-79
2022/10/07 10:17:23;;;;;;;6.13;5.40;;;24.00;99.90;;;;;;5194300;28;20358;-76
2022/10/07 10:20:17;;;;;;;10.32;5.05;;;23.90;99.90;;;;;;5198379;28;20055;-79
2022/10/07 10:22:50;;;;;;;6.82;5.28;;;24.60;99.90;;;;;;5181054;28;20323;-76
2022/10/07 10:28:43;;;;;;;5.43;4.20;;;25.50;99.90;;;;;;5178588;28;20303;-76
2022/10/07 10:31:38;;;;;;;7.00;3.90;;;26.80;99.90;;;;;;5177845;28;20340;-77
2022/10/07 10:34:28;;;;;;;;;;;27.10;99.90;;;;;;5198423;28;20039;-78
2022/10/07 10:37:17;;;;;;;9.18;4.70;;;26.00;99.90;;;;;;5177830;28;19909;-80
2022/10/07 10:40:26;;;;;;;8.48;4.68;;;24.60;99.90;;;;;;5177754;28;20313;-78
2022/10/07 10:43:22;;;;;;;7.45;4.15;;;23.60;99.90;;;;;;5193866;28;20028;-79
2022/10/07 10:46:12;;;;;;;6.60;5.28;;;25.40;99.90;;;;;;5193178;28;20266;-79
2022/10/07 10:49:27;;;;;;;6.80;4.80;;;26.60;99.90;;;;;;5201679;28;20035;-77
2022/10/07 10:52:07;;;;;;;9.15;5.20;;;27.60;99.90;;;;;;5130496;28;20042;-77
2022/10/07 10:54:53;;;;;;;7.03;5.07;;;28.30;99.90;;;;;;5170448;28;20022;-77
2022/10/07 10:57:40;;;;;;;7.90;5.20;;;27.90;99.90;;;;;;5153570;28;20189;-78
2022/10/07 11:00:16;;;;;;;5.22;4.30;;;26.50;99.90;;;;;;5135781;28;20065;-80
2022/10/07 11:02:59;;;;;;;7.30;4.53;;;25.90;99.90;;;;;;5163508;28;20045;-78
2022/10/07 11:05:34;;;;;;;7.07;4.85;;;25.20;99.90;;;;;;5146341;28;20054;-79
2022/10/07 11:08:20;;;;;;;6.78;5.25;;;25.40;99.90;;;;;;5154976;28;20038;-77
2022/10/07 11:10:54;;;;;;;8.27;5.18;;;27.00;99.90;;;;;;5149152;28;20030;-78
2022/10/07 11:13:45;;;;;;;10.13;5.50;;;26.20;99.90;;;;;;5154893;28;20034;-78
2022/10/07 11:16:24;;;;;;;5.15;4.65;;;27.30;99.90;;;;;;5153535;28;20574;-78
2022/10/07 11:19:00;;;;;;;10.02;5.40;;;27.70;99.90;;;;;;5138838;28;20034;-77
2022/10/07 11:21:55;;;;;;;8.02;5.25;;;26.40;99.90;;;;;;5154934;28;20030;-78
2022/10/07 11:24:40;;;;;;;10.15;5.43;;;26.10;99.90;;;;;;5154865;28;20041;-79
2022/10/07 11:27:17;;;;;;;7.50;4.50;;;26.60;99.90;;;;;;5164579;28;20246;-80
2022/10/07 11:30:07;;;;;;;7.05;5.43;;;27.70;99.90;;;;;;5178803;28;20725;-77
2022/10/07 11:33:08;;;;;;;6.75;4.53;;;25.80;99.90;;;;;;5175425;28;20050;-78
2022/10/07 11:35:56;;;;;;;6.38;5.05;;;26.10;99.90;;;;;;5172738;28;20060;-77
2022/10/07 11:38:32;;;;;;;9.05;4.55;;;27.20;99.90;;;;;;5178145;28;20225;-77
2022/10/07 11:41:32;;;;;;;6.93;5.45;;;28.10;99.90;;;;;;5178637;28;20040;-77
2022/10/07 11:44:14;;;;;;;9.40;5.63;;;27.50;99.90;;;;;;5177662;28;20043;-78
2022/10/07 11:46:47;;;;;;;9.88;6.07;;;26.50;99.90;;;;;;5176529;28;20332;-79
2022/10/07 11:49:28;;;;;;;8.65;6.50;;;25.90;99.90;;;;;;5178043;28;20022;-78
2022/10/07 11:52:02;;;;;;;8.10;5.72;;;26.40;99.90;;;;;;5180868;28;20017;-78
2022/10/07 11:54:45;;;;;;;11.75;6.43;;;25.50;99.90;;;;;;5183450;28;20117;-78
2022/10/07 11:57:25;;;;;;;9.40;5.68;;;24.90;99.90;;;;;;5192047;28;20040;-79
2022/10/07 12:00:00;;;;;;;8.75;5.30;;;25.60;99.90;;;;;;5184040;28;20038;-78
2022/10/07 12:02:40;;;;;;;10.45;5.75;;;25.10;99.90;;;;;;5182984;28;20136;-78
2022/10/07 12:05:49;;;;;;;8.60;5.22;;;25.60;99.90;;;;;;5180174;28;20045;-79
2022/10/07 12:08:28;;;;;;;8.85;5.65;;;24.80;99.90;;;;;;5160364;28;20052;-79
2022/10/07 12:11:16;;;;;;;7.97;5.40;;;24.40;99.90;;;;;;5154856;28;20165;-78
2022/10/07 12:13:50;;;;;;;7.40;4.72;;;25.10;99.90;;;;;;5154772;28;20144;-79
2022/10/07 12:16:30;;;;;;;7.32;4.85;;;25.10;99.90;;;;;;5158606;28;20324;-78
2022/10/07 12:19:07;;;;;;;8.05;5.15;;;25.20;99.90;;;;;;5158027;28;20038;-78
2022/10/07 12:21:59;;;;;;;8.45;5.35;;;26.00;99.90;;;;;;5158294;28;20266;-78
2022/10/07 12:24:35;;;;;;;8.05;4.45;;;26.20;99.90;;;;;;5158724;28;20042;-78
2022/10/07 12:27:18;;;;;;;5.38;4.47;;;26.30;99.90;;;;;;5143931;28;20064;-79
2022/10/07 12:30:01;;;;;;;5.80;4.00;;;26.60;99.90;;;;;;5157068;28;20335;-78
2022/10/07 12:32:50;;;;;;;9.10;4.03;;;26.50;99.90;;;;;;5161392;28;20037;-80
2022/10/07 12:35:33;;;;;;;6.70;4.20;;;25.60;99.90;;;;;;5141661;28;20042;-77
2022/10/07 12:38:13;;;;;;;6.28;3.78;;;26.10;99.90;;;;;;5158205;28;20282;-77
2022/10/07 12:41:07;;;;;;;7.25;3.30;;;26.70;99.90;;;;;;5157066;28;20022;-76
2022/10/07 12:44:11;;;;;;;5.40;3.63;;;26.30;99.90;;;;;;5154338;28;20045;-80
2022/10/07 12:46:55;;;;;;;4.38;3.20;;;27.20;99.90;;;;;;5201694;28;20035;-78
2022/10/07 12:49:33;;;;;;;3.80;3.40;;;28.20;99.90;;;;;;5181722;28;20042;-78
2022/10/07 12:52:10;;;;;;;3.40;3.10;;;27.50;99.90;;;;;;5200707;28;20344;-77
2022/10/07 12:54:47;;;;;;;4.43;3.10;;;28.00;99.90;;;;;;5199662;28;20021;-78
2022/10/07 12:57:22;;;;;;;4.88;3.22;;;28.10;99.90;;;;;;5198734;28;20041;-77
2022/10/07 12:59:53;;;;;;;;;;;27.50;99.90;;;;;;5185524;28;20048;-79
2022/10/07 13:02:30;;;;;;;6.95;3.40;;;26.50;99.90;;;;;;5187400;28;19924;-76
2022/10/07 13:05:46;;;;;;;3.63;3.30;;;27.20;99.90;;;;;;5196955;28;20052;-78
2022/10/07 13:08:39;;;;;;;6.85;3.28;;;26.10;99.90;;;;;;5206815;28;20303;-77
2022/10/07 13:11:28;;;;;;;6.68;3.53;;;26.60;99.90;;;;;;5193994;28;20029;-78
2022/10/07 13:14:08;;;;;;;7.38;3.40;;;26.80;99.90;;;;;;5183053;28;20461;-79
2022/10/07 13:16:48;;;;;;;5.57;3.35;;;26.60;99.90;;;;;;5206163;28;20186;-77
2022/10/07 13:19:55;;;;;;;4.78;3.42;;;26.00;99.90;;;;;;5201552;28;20389;-76
2022/10/07 13:22:27;;;;;;;7.60;3.45;;;26.70;99.90;;;;;;5181273;28;20327;-77
2022/10/07 13:25:02;;;;;;;5.63;3.17;;;26.40;99.90;;;;;;5182764;28;20039;-77
2022/10/07 13:27:37;;;;;;;4.78;3.35;;;27.00;99.90;;;;;;5182730;28;20029;-77
2022/10/07 13:30:39;;;;;;;4.95;3.17;;;27.70;99.90;;;;;;5199311;28;20117;-76
2022/10/07 13:33:29;;;;;;;7.55;3.33;;;26.70;99.90;;;;;;5200352;28;20040;-79
2022/10/07 13:36:21;;;;;;;4.13;3.00;;;27.10;99.90;;;;;;5181979;28;20247;-77
2022/10/07 13:39:10;;;;;;;4.18;3.20;;;26.50;99.90;;;;;;5172876;28;20037;-78
2022/10/07 13:41:46;;;;;;;3.78;3.38;;;27.10;99.90;;;;;;5167600;28;20902;-79
2022/10/07 13:44:19;;;;;;;4.43;3.67;;;26.50;99.90;;;;;;5191612;28;20326;-77
2022/10/07 13:47:10;;;;;;;6.25;3.25;;;25.80;99.90;;;;;;5179205;28;20033;-77
2022/10/07 13:49:44;;;;;;;3.53;3.22;;;25.60;99.90;;;;;;5175334;28;20345;-79